Terminal Aerodrome Forecast
Issued by NWS

Home | Current Version | Previous Version | Graphics & Text | Print | Product List | Glossary On
Versions: 1 2 3 4 5 6 7 8 9 10 11 12 13 14 15 16 17 18 19 20 21 22 23 24 25 26
000
FTUS43 KBIS 270600 AAA
TAFJMS
TAF AMD
KJMS 270613Z 2706/2806 VRB03KT 3SM BR SCT020
      TEMPO 2706/2710 1SM BR SCT005
     FM271500 16009KT P6SM SCT040
     FM280100 15005KT P6SM BKN040=

USA.gov is the U.S. government's official web portal to all federal, state and local government web resources and services.